sensor_id;sensor_type;location;lat;lon;timestamp;P1;durP1;ratioP1;P2;durP2;ratioP2
78856;SDS011;68207;50.078;19.936;2023-06-19T00:01:22;10.50;;;8.90;;
78856;SDS011;68207;50.078;19.936;2023-06-19T00:03:48;11.70;;;9.00;;
78856;SDS011;68207;50.078;19.936;2023-06-19T00:06:13;10.70;;;8.90;;
78856;SDS011;68207;50.078;19.936;2023-06-19T00:08:38;12.20;;;9.00;;
78856;SDS011;68207;50.078;19.936;2023-06-19T00:11:06;13.60;;;9.10;;
78856;SDS011;68207;50.078;19.936;2023-06-19T00:13:31;10.40;;;9.00;;
78856;SDS011;68207;50.078;19.936;2023-06-19T00:15:57;10.70;;;9.10;;
78856;SDS011;68207;50.078;19.936;2023-06-19T00:18:25;11.70;;;8.60;;
78856;SDS011;68207;50.078;19.936;2023-06-19T00:20:50;10.90;;;9.30;;
78856;SDS011;68207;50.078;19.936;2023-06-19T00:23:15;10.50;;;8.50;;
78856;SDS011;68207;50.078;19.936;2023-06-19T00:25:41;11.60;;;8.60;;
78856;SDS011;68207;50.078;19.936;2023-06-19T00:28:08;11.70;;;8.70;;
78856;SDS011;68207;50.078;19.936;2023-06-19T00:30:36;11.50;;;8.80;;
78856;SDS011;68207;50.078;19.936;2023-06-19T00:33:01;11.60;;;9.00;;
78856;SDS011;68207;50.078;19.936;2023-06-19T00:35:27;11.30;;;8.80;;
78856;SDS011;68207;50.078;19.936;2023-06-19T00:37:52;11.00;;;8.80;;
78856;SDS011;68207;50.078;19.936;2023-06-19T00:40:21;15.20;;;8.80;;
78856;SDS011;68207;50.078;19.936;2023-06-19T00:42:49;10.80;;;8.60;;
78856;SDS011;68207;50.078;19.936;2023-06-19T00:45:14;10.20;;;8.80;;
78856;SDS011;68207;50.078;19.936;2023-06-19T00:47:39;11.10;;;8.90;;
78856;SDS011;68207;50.078;19.936;2023-06-19T00:50:05;12.60;;;9.00;;
78856;SDS011;68207;50.078;19.936;2023-06-19T00:52:31;11.20;;;8.80;;
78856;SDS011;68207;50.078;19.936;2023-06-19T00:54:57;12.50;;;9.10;;
78856;SDS011;68207;50.078;19.936;2023-06-19T00:57:22;12.00;;;8.60;;
78856;SDS011;68207;50.078;19.936;2023-06-19T00:59:48;11.90;;;9.30;;
78856;SDS011;68207;50.078;19.936;2023-06-19T01:02:13;11.30;;;9.60;;
78856;SDS011;68207;50.078;19.936;2023-06-19T01:04:39;11.60;;;9.70;;
78856;SDS011;68207;50.078;19.936;2023-06-19T01:07:08;11.30;;;9.20;;
78856;SDS011;68207;50.078;19.936;2023-06-19T01:09:37;10.40;;;8.90;;
78856;SDS011;68207;50.078;19.936;2023-06-19T01:12:08;11.80;;;9.10;;
78856;SDS011;68207;50.078;19.936;2023-06-19T01:14:35;10.60;;;8.90;;
78856;SDS011;68207;50.078;19.936;2023-06-19T01:17:02;11.50;;;8.30;;
78856;SDS011;68207;50.078;19.936;2023-06-19T01:19:28;10.80;;;8.60;;
78856;SDS011;68207;50.078;19.936;2023-06-19T01:21:53;11.20;;;8.70;;
78856;SDS011;68207;50.078;19.936;2023-06-19T01:24:18;11.60;;;8.80;;
78856;SDS011;68207;50.078;19.936;2023-06-19T01:26:44;10.60;;;8.70;;
78856;SDS011;68207;50.078;19.936;2023-06-19T01:29:11;11.60;;;8.70;;
78856;SDS011;68207;50.078;19.936;2023-06-19T01:31:45;11.30;;;9.10;;
78856;SDS011;68207;50.078;19.936;2023-06-19T01:34:11;11.60;;;9.10;;
78856;SDS011;68207;50.078;19.936;2023-06-19T01:36:37;10.80;;;8.70;;
78856;SDS011;68207;50.078;19.936;2023-06-19T01:39:03;12.40;;;9.30;;
78856;SDS011;68207;50.078;19.936;2023-06-19T01:41:29;10.20;;;9.10;;
78856;SDS011;68207;50.078;19.936;2023-06-19T01:43:55;12.60;;;8.70;;
78856;SDS011;68207;50.078;19.936;2023-06-19T01:46:20;10.90;;;8.20;;
78856;SDS011;68207;50.078;19.936;2023-06-19T01:48:46;10.60;;;8.00;;
78856;SDS011;68207;50.078;19.936;2023-06-19T01:51:11;9.80;;;7.90;;
78856;SDS011;68207;50.078;19.936;2023-06-19T01:53:36;12.90;;;7.90;;
78856;SDS011;68207;50.078;19.936;2023-06-19T01:56:01;9.20;;;8.00;;
78856;SDS011;68207;50.078;19.936;2023-06-19T01:58:26;10.50;;;7.30;;
78856;SDS011;68207;50.078;19.936;2023-06-19T02:00:52;11.20;;;7.70;;
78856;SDS011;68207;50.078;19.936;2023-06-19T02:03:17;9.20;;;7.60;;
78856;SDS011;68207;50.078;19.936;2023-06-19T02:05:42;9.20;;;7.60;;
78856;SDS011;68207;50.078;19.936;2023-06-19T02:08:08;10.60;;;7.60;;
78856;SDS011;68207;50.078;19.936;2023-06-19T02:10:33;10.20;;;7.60;;
78856;SDS011;68207;50.078;19.936;2023-06-19T02:12:58;10.90;;;7.70;;
78856;SDS011;68207;50.078;19.936;2023-06-19T02:15:23;10.70;;;7.90;;
78856;SDS011;68207;50.078;19.936;2023-06-19T02:17:49;10.20;;;7.70;;
78856;SDS011;68207;50.078;19.936;2023-06-19T02:20:14;10.20;;;7.10;;
78856;SDS011;68207;50.078;19.936;2023-06-19T02:22:40;10.30;;;7.70;;
78856;SDS011;68207;50.078;19.936;2023-06-19T02:25:05;9.40;;;8.10;;
78856;SDS011;68207;50.078;19.936;2023-06-19T02:27:31;11.30;;;8.20;;
78856;SDS011;68207;50.078;19.936;2023-06-19T02:29:56;10.30;;;7.90;;
78856;SDS011;68207;50.078;19.936;2023-06-19T02:32:21;9.60;;;7.40;;
78856;SDS011;68207;50.078;19.936;2023-06-19T02:34:47;9.00;;;8.00;;
78856;SDS011;68207;50.078;19.936;2023-06-19T02:37:12;11.60;;;7.80;;
78856;SDS011;68207;50.078;19.936;2023-06-19T02:39:37;10.10;;;8.20;;
78856;SDS011;68207;50.078;19.936;2023-06-19T02:42:03;10.90;;;8.30;;
78856;SDS011;68207;50.078;19.936;2023-06-19T02:44:28;10.70;;;7.60;;
78856;SDS011;68207;50.078;19.936;2023-06-19T02:46:53;9.00;;;7.40;;
78856;SDS011;68207;50.078;19.936;2023-06-19T02:49:18;10.70;;;7.70;;
78856;SDS011;68207;50.078;19.936;2023-06-19T02:51:44;10.00;;;7.80;;
78856;SDS011;68207;50.078;19.936;2023-06-19T02:54:09;12.90;;;8.50;;
78856;SDS011;68207;50.078;19.936;2023-06-19T02:56:34;10.80;;;9.00;;
78856;SDS011;68207;50.078;19.936;2023-06-19T02:58:59;12.50;;;9.40;;
78856;SDS011;68207;50.078;19.936;2023-06-19T03:01:24;16.30;;;9.20;;
78856;SDS011;68207;50.078;19.936;2023-06-19T03:03:50;9.60;;;8.10;;
78856;SDS011;68207;50.078;19.936;2023-06-19T03:06:17;11.20;;;8.80;;
78856;SDS011;68207;50.078;19.936;2023-06-19T03:08:43;12.50;;;8.20;;
78856;SDS011;68207;50.078;19.936;2023-06-19T03:11:08;9.60;;;7.90;;
78856;SDS011;68207;50.078;19.936;2023-06-19T03:16:14;11.20;;;8.20;;
78856;SDS011;68207;50.078;19.936;2023-06-19T03:18:44;9.90;;;8.30;;
78856;SDS011;68207;50.078;19.936;2023-06-19T03:21:13;12.60;;;8.90;;
78856;SDS011;68207;50.078;19.936;2023-06-19T03:23:39;11.10;;;8.40;;
78856;SDS011;68207;50.078;19.936;2023-06-19T03:26:06;9.50;;;8.30;;
78856;SDS011;68207;50.078;19.936;2023-06-19T03:28:31;12.00;;;8.40;;
78856;SDS011;68207;50.078;19.936;2023-06-19T03:30:56;11.10;;;8.30;;
78856;SDS011;68207;50.078;19.936;2023-06-19T03:33:21;10.10;;;8.40;;
78856;SDS011;68207;50.078;19.936;2023-06-19T03:35:47;10.80;;;8.10;;
78856;SDS011;68207;50.078;19.936;2023-06-19T03:38:12;11.20;;;8.60;;
78856;SDS011;68207;50.078;19.936;2023-06-19T03:40:37;10.80;;;8.20;;
78856;SDS011;68207;50.078;19.936;2023-06-19T03:43:02;12.00;;;8.70;;
78856;SDS011;68207;50.078;19.936;2023-06-19T03:45:27;46.90;;;10.60;;
78856;SDS011;68207;50.078;19.936;2023-06-19T03:47:53;21.30;;;9.50;;
78856;SDS011;68207;50.078;19.936;2023-06-19T03:50:18;21.20;;;9.60;;
78856;SDS011;68207;50.078;19.936;2023-06-19T03:52:43;13.20;;;9.60;;
78856;SDS011;68207;50.078;19.936;2023-06-19T03:55:08;11.40;;;9.20;;
78856;SDS011;68207;50.078;19.936;2023-06-19T03:57:34;11.70;;;9.20;;
78856;SDS011;68207;50.078;19.936;2023-06-19T03:59:59;22.90;;;9.70;;
78856;SDS011;68207;50.078;19.936;2023-06-19T04:02:24;18.90;;;10.40;;
78856;SDS011;68207;50.078;19.936;2023-06-19T04:04:50;24.30;;;10.40;;
78856;SDS011;68207;50.078;19.936;2023-06-19T04:07:15;20.60;;;10.80;;
78856;SDS011;68207;50.078;19.936;2023-06-19T04:09:40;17.10;;;9.40;;
78856;SDS011;68207;50.078;19.936;2023-06-19T04:12:06;15.90;;;9.20;;
78856;SDS011;68207;50.078;19.936;2023-06-19T04:14:31;14.70;;;9.30;;
78856;SDS011;68207;50.078;19.936;2023-06-19T04:16:57;14.30;;;9.50;;
78856;SDS011;68207;50.078;19.936;2023-06-19T04:19:22;12.80;;;9.50;;
78856;SDS011;68207;50.078;19.936;2023-06-19T04:21:47;11.30;;;9.50;;
78856;SDS011;68207;50.078;19.936;2023-06-19T04:24:12;12.90;;;9.90;;
78856;SDS011;68207;50.078;19.936;2023-06-19T04:26:37;15.30;;;9.40;;
78856;SDS011;68207;50.078;19.936;2023-06-19T04:29:02;11.90;;;9.00;;
78856;SDS011;68207;50.078;19.936;2023-06-19T04:31:28;10.60;;;9.40;;
78856;SDS011;68207;50.078;19.936;2023-06-19T04:33:53;14.30;;;8.70;;
78856;SDS011;68207;50.078;19.936;2023-06-19T04:36:21;9.90;;;8.60;;
78856;SDS011;68207;50.078;19.936;2023-06-19T04:38:46;10.50;;;7.80;;
78856;SDS011;68207;50.078;19.936;2023-06-19T04:41:11;10.20;;;7.70;;
78856;SDS011;68207;50.078;19.936;2023-06-19T04:43:36;11.10;;;8.70;;
78856;SDS011;68207;50.078;19.936;2023-06-19T04:46:01;9.40;;;8.20;;
78856;SDS011;68207;50.078;19.936;2023-06-19T04:48:29;11.50;;;8.80;;
78856;SDS011;68207;50.078;19.936;2023-06-19T04:50:54;13.30;;;8.80;;
78856;SDS011;68207;50.078;19.936;2023-06-19T04:53:21;11.50;;;9.30;;
78856;SDS011;68207;50.078;19.936;2023-06-19T22:14:05;12.90;;;11.60;;
78856;SDS011;68207;50.078;19.936;2023-06-19T22:16:30;16.00;;;11.80;;
78856;SDS011;68207;50.078;19.936;2023-06-19T22:18:56;14.40;;;10.60;;
78856;SDS011;68207;50.078;19.936;2023-06-19T22:21:25;16.80;;;10.90;;
78856;SDS011;68207;50.078;19.936;2023-06-19T22:23:50;13.30;;;10.70;;
78856;SDS011;68207;50.078;19.936;2023-06-19T22:26:15;15.60;;;10.50;;
78856;SDS011;68207;50.078;19.936;2023-06-19T22:28:42;13.20;;;10.20;;
78856;SDS011;68207;50.078;19.936;2023-06-19T22:31:07;16.90;;;10.80;;
78856;SDS011;68207;50.078;19.936;2023-06-19T22:33:34;16.00;;;9.90;;
78856;SDS011;68207;50.078;19.936;2023-06-19T22:36:00;15.80;;;11.30;;
78856;SDS011;68207;50.078;19.936;2023-06-19T22:38:25;14.30;;;11.10;;
78856;SDS011;68207;50.078;19.936;2023-06-19T22:40:50;15.00;;;11.90;;
78856;SDS011;68207;50.078;19.936;2023-06-19T22:43:15;14.80;;;11.60;;
78856;SDS011;68207;50.078;19.936;2023-06-19T22:45:41;13.40;;;10.80;;
78856;SDS011;68207;50.078;19.936;2023-06-19T22:48:06;16.20;;;11.10;;
78856;SDS011;68207;50.078;19.936;2023-06-19T22:50:31;12.40;;;10.50;;
78856;SDS011;68207;50.078;19.936;2023-06-19T22:52:56;14.00;;;10.80;;
78856;SDS011;68207;50.078;19.936;2023-06-19T22:55:21;13.60;;;11.00;;
78856;SDS011;68207;50.078;19.936;2023-06-19T22:57:47;12.70;;;10.50;;
78856;SDS011;68207;50.078;19.936;2023-06-19T23:00:12;14.80;;;10.50;;
78856;SDS011;68207;50.078;19.936;2023-06-19T23:02:38;16.50;;;10.10;;
78856;SDS011;68207;50.078;19.936;2023-06-19T23:05:04;12.20;;;9.60;;
78856;SDS011;68207;50.078;19.936;2023-06-19T23:07:29;12.40;;;10.30;;
78856;SDS011;68207;50.078;19.936;2023-06-19T23:09:57;12.40;;;9.80;;
78856;SDS011;68207;50.078;19.936;2023-06-19T23:12:22;13.80;;;9.80;;
78856;SDS011;68207;50.078;19.936;2023-06-19T23:14:47;14.00;;;10.20;;
78856;SDS011;68207;50.078;19.936;2023-06-19T23:17:12;14.70;;;10.10;;
78856;SDS011;68207;50.078;19.936;2023-06-19T23:19:37;15.60;;;10.20;;
78856;SDS011;68207;50.078;19.936;2023-06-19T23:22:05;11.30;;;9.80;;
78856;SDS011;68207;50.078;19.936;2023-06-19T23:24:31;11.30;;;9.30;;
78856;SDS011;68207;50.078;19.936;2023-06-19T23:26:56;12.10;;;9.40;;
78856;SDS011;68207;50.078;19.936;2023-06-19T23:29:21;12.90;;;9.70;;
78856;SDS011;68207;50.078;19.936;2023-06-19T23:31:46;15.50;;;10.60;;
78856;SDS011;68207;50.078;19.936;2023-06-19T23:34:11;13.00;;;10.20;;
78856;SDS011;68207;50.078;19.936;2023-06-19T23:36:36;12.60;;;10.30;;
78856;SDS011;68207;50.078;19.936;2023-06-19T23:39:02;12.60;;;10.50;;
78856;SDS011;68207;50.078;19.936;2023-06-19T23:41:27;12.10;;;9.50;;
78856;SDS011;68207;50.078;19.936;2023-06-19T23:43:52;16.40;;;10.00;;
78856;SDS011;68207;50.078;19.936;2023-06-19T23:46:18;13.20;;;10.80;;
78856;SDS011;68207;50.078;19.936;2023-06-19T23:48:43;12.70;;;10.60;;
78856;SDS011;68207;50.078;19.936;2023-06-19T23:51:08;12.20;;;10.20;;
78856;SDS011;68207;50.078;19.936;2023-06-19T23:53:33;11.80;;;10.00;;
78856;SDS011;68207;50.078;19.936;2023-06-19T23:55:58;13.40;;;10.50;;
78856;SDS011;68207;50.078;19.936;2023-06-19T23:58:24;15.10;;;10.50;;
